MyTimes logo

TIMES

Webb Imagery

14/02/1998
Channel Challenge
550m Swim / 2.0km Run - Local Residents

(Click on competitor name to view personalised results)

Name
Race #
Category
Time
(h:mm:ss)
Avg Speed
km/hr
OAll
Place
Cat
Place
HOLLINS Peter #8Local Open Male0:13:269:36 11
HUTCHINSON Warwick #97Local Open Male0:14:537:12 22
DALLINGER Chris #41Local Open Male0:14:557:12 33
YUSKO William #385Local Over 40 Male0:14:557:12 41
JUDD Gary #404Local Over 40 Male0:14:58 10.2 52
FLEISNER Rob #36Local Open Male0:15:014:48 64
GARRETT Geoffrey #129Local Open Male0:15:160:00 75
DUNLOP Nathan #391Local Junior Male0:15:18 10 81
BRADEN Michael #11Local Open Male0:16:0512:00 96
GROSS Mark #122Local Open Male0:16:0712:00 107
MARSHALL Luke #40Local Open Male0:16:139:36 118
WATERSON Michael #38Local Open Male0:16:179:36 129
HOUGHTON Daniel #439Local Junior Male0:16:21 9.4 132
MASON John #538Local Over 40 Male0:16:22 9.3 143
SUNDERLAND Andrew #389Local Junior Male0:16:28 9.3 153
KENT Ryan #403Local Junior Male0:16:34 9.2 164
HEWETT Noel #39Local Open Male0:16:492:24 1710
MARCUM Stuart #524Local Junior Male0:16:52 9.1 185
STERLAND Chantelle #544Local Open Female0:16:58 9 191
MCHENRY Simon #525Local Junior Male0:17:09 8.9 206
TANCHEFF Brian #141Local Open Male0:17:14 8.9 2111
MAC MILLAN Matthew #133Local Open Male0:17:15 8.9 2212
WRIGHT Ryan #567Local Junior Male0:17:21 8.8 237
HORNER Mark #171Local Open Male0:17:22 8.8 2413
CAMPBELL Daniel #497Local Junior Male0:17:27 8.8 258
STEVIC Michael #562Local Over 40 Male0:17:31 8.7 264
CHISHOLM Andy #4Local Open Male0:17:35 8.7 2714
GILBEE Chris #73Local Open Male0:17:35 8.7 2815
HAMMOND Henry #380Local Over 40 Male0:17:37 8.7 295
ABRAHAMSON Gareth #23Local Open Male0:17:40 8.7 3016
YUSKO Daniel #386Local Junior Male0:17:40 8.7 319
DAFF Jessica #527Local Junior Female0:17:41 8.7 321
DAFF Geoff #526Local Over 40 Male0:17:43 8.6 336
SLATER Megan #418Local Open Female0:17:44 8.6 342
DAVIE Angie #457Local Open Female0:17:47 8.6 353
WESTON Tatia #570Local Open Female0:17:53 8.6 364
MARKS Kate #528Local Junior Female0:17:55 8.5 372
NISH Dennis #477Local Over 40 Male0:17:59 8.5 387
SPOTTISWOOD James #406Local Junior Male0:18:04 8.5 3910
GORSUCH Scott #74Local Open Male0:18:11 8.4 4017
DALLINGER Brian #399Local Over 40 Male0:18:19 8.4 418
SUNDERLAND Peter #365Local Over 40 Male0:18:27 8.3 429
BLAKEMORE Richard #135Local Open Male0:18:28 8.3 4318
BEISCHER Caroline #415Local Open Female0:18:28 8.3 445
YOUL Richard #132Local Open Male0:18:29 8.3 4519
COX Bill #145Local Open Male0:18:29 8.3 4620
AVAGE Kelly #508Local Open Female0:18:30 8.3 476
POTTER Brian #130Local Open Male0:18:31 8.3 4821
GRANT Marianne #467Local Open Female0:18:34 8.2 497
MATTHEW Robert #631Local Over 40 Male0:18:34 8.2 5010
CHASTON Peter #530Local Over 40 Male0:18:41 8.2 5111
WHITEHOUSE Richard #109Local Open Male0:18:43 8.2 5222
KEADY Richard #390Local Over 40 Male0:18:45 8.2 5312
SMITH Paul #421Local Over 40 Male0:18:50 8.1 5413
VAUGHAN Steven #138Local Open Male0:18:53 8.1 5523
FLEISER Paul #413Local Over 40 Male0:19:00 8.1 5614
FREEMAN Kevin #134Local Open Male0:19:01 8 5724
RODGERS Adam #359Local Junior Male0:19:32 7.8 5811
READ Ken #121Local Open Male0:19:33 7.8 5925
HOPKINS Barry #384Local Over 40 Male0:19:35 7.8 6015
AVAGE Ian #61Local Open Male0:19:40 7.8 6126
BROWN Warwick #514Local Junior Male0:19:49 7.7 6212
JOHNSTON John #161Local Open Male0:19:53 7.7 6327
WRIGHT Phil #568Local Over 40 Male0:20:01 7.6 6416
BURKE Angela #469Local Open Female0:20:08 7.6 658
COUSENS Murray #62Local Open Male0:20:29 7.5 6628
JOHNSTON Brian #160Local Open Male0:20:35 7.4 6729
WEST Michael #136Local Open Male0:20:37 7.4 6830
HIBBLE Jenny #529Local Open Female0:20:53 7.3 699
SUNDERLAND Carla #506Local Open Female0:20:56 7.3 7010
BURT Ray #543Local Over 40 Male0:21:15 7.2 7117
PATKIN Tim #518Local Over 40 Male0:21:18 7.2 7218
BURT Kate #411Local Over 40 Female0:21:25 7.1 731
BREWIN Dennis #571Local Over 40 Male0:21:25 7.1 7419
MASON Simone #498Local Open Female0:21:27 7.1 7511
BREWIN Cathy #407Local Open Female0:21:30 7.1 7612
CARTER Colin #587Local Over 40 Male0:21:42 7.1 7720
GRAHAME Bruce #92Local Open Male0:21:43 7 7831
PATKIN Sally #519Local Junior Female0:21:43 7 793
WINTLE Dylan #140Local Open Male0:21:55 7 8032
BAILEY Lyn #396Local Open Female0:22:04 6.9 8113
SCHMEISZL Kate #364Local Junior Female0:22:06 6.9 824
FINCHER Michelle #490Local Open Female0:22:11 6.9 8314
PATKIN Kate #520Local Junior Female0:22:17 6.9 845
HOSKING Robert #416Local Junior Male0:22:21 6.8 8513
WEIR Warren #398Local Over 40 Male0:22:24 6.8 8621
HIALT Sam #585Local Open Female0:22:26 6.8 8715
VAN BREEMER Deanne #422Local Open Female0:22:27 6.8 8816
CARTER Sandra #586Local Junior Female0:22:46 6.7 896
WALKER Christine #360Local Over 40 Female0:23:12 6.6 902
GARNHAM Yael #554Local Junior Female0:23:49 6.4 917
CHEYNE Rodney #507Local Over 40 Male0:24:08 6.3 9222
DICKIE Simone #513Local Open Female0:24:19 6.3 9317
SWALLOW Piere #139Local Open Male0:25:07 6.1 9433
BLAKE Colleen #559Local Over 40 Female0:25:09 6.1 953
ANDERSON Samantha #489Local Open Female0:28:39 5.3 9618
MATTHEW Bruce #425Local Over 40 Male0:30:01 5.1 9723
BARRY Cheryle #502Local Over 40 Female0:30:25 5 984
REEK George #370Local Over 40 Male0:30:25 5 9924